createdAt,value
2023-01-11T00:04:40.868Z,-17.76
2023-01-11T00:09:48.325Z,-17.75
2023-01-11T00:14:53.757Z,-17.97
2023-01-11T00:19:59.250Z,-17.76
2023-01-11T00:25:05.407Z,-17.56
2023-01-11T00:30:11.610Z,-17.52
2023-01-11T00:35:17.444Z,-17.74
2023-01-11T00:40:24.579Z,-17.57
2023-01-11T00:45:50.577Z,-17.63
2023-01-11T00:50:57.779Z,-17.91
2023-01-11T00:56:03.266Z,-17.59
2023-01-11T01:01:09.048Z,-17.33
2023-01-11T01:06:14.624Z,-17.48
2023-01-11T01:11:20.521Z,-17.63
2023-01-11T01:16:26.028Z,-17.60
2023-01-11T01:21:31.650Z,-18.25
2023-01-11T01:26:37.544Z,-17.83
2023-01-11T01:31:44.376Z,-17.69
2023-01-11T01:36:50.058Z,-18.46
2023-01-11T01:41:55.625Z,-18.60
2023-01-11T01:47:04.847Z,-18.78
2023-01-11T01:52:12.360Z,-18.94
2023-01-11T01:57:25.274Z,-18.41
2023-01-11T02:02:30.866Z,-18.15
2023-01-11T02:07:39.961Z,-17.86
2023-01-11T02:13:01.157Z,-17.99
2023-01-11T02:18:13.566Z,-18.28
2023-01-11T02:23:56.872Z,-18.46
2023-01-11T02:29:26.320Z,-18.34
2023-01-11T02:35:04.816Z,-18.24
2023-01-11T02:40:37.849Z,-18.70
2023-01-11T02:46:08.240Z,-18.78
2023-01-11T02:51:26.061Z,-19.02
2023-01-11T02:56:38.702Z,-18.73
2023-01-11T03:01:49.112Z,-19.15
2023-01-11T03:07:21.359Z,-19.24
2023-01-11T03:12:55.427Z,-19.36
2023-01-11T03:18:34.119Z,-19.35
2023-01-11T03:24:08.138Z,-18.98
2023-01-11T03:29:53.244Z,-19.36
2023-01-11T03:35:53.756Z,-19.20
2023-01-11T03:41:23.309Z,-18.65
2023-01-11T03:46:37.409Z,-18.15
2023-01-11T03:51:48.238Z,-18.02
2023-01-11T03:57:18.665Z,-17.98
2023-01-11T04:02:29.478Z,-17.93
2023-01-11T04:07:34.615Z,-17.76
2023-01-11T04:12:40.509Z,-18.35
2023-01-11T04:17:45.958Z,-18.11
2023-01-11T04:22:51.726Z,-17.93
2023-01-11T04:27:57.893Z,-18.17
2023-01-11T04:33:05.964Z,-18.72
2023-01-11T04:38:09.941Z,-19.21
2023-01-11T04:43:15.229Z,-19.69
2023-01-11T04:48:20.781Z,-19.43
2023-01-11T04:53:26.296Z,-19.75
2023-01-11T04:58:32.872Z,-19.56
2023-01-11T05:03:41.700Z,-19.08
2023-01-11T05:08:51.665Z,-18.18
2023-01-11T05:14:00.746Z,-17.56
2023-01-11T05:19:07.360Z,-16.92
2023-01-11T05:24:16.437Z,-16.74
2023-01-11T05:29:22.167Z,-16.28
2023-01-11T05:34:26.646Z,-16.47
2023-01-11T05:39:31.919Z,-16.72
2023-01-11T05:44:58.108Z,-16.87
2023-01-11T05:50:02.652Z,-17.15
2023-01-11T05:55:07.582Z,-16.92
2023-01-11T06:00:13.257Z,-16.91
2023-01-11T06:05:17.580Z,-16.62
2023-01-11T06:10:22.738Z,-16.89
2023-01-11T06:15:28.000Z,-16.62
2023-01-11T06:20:32.831Z,-16.76
2023-01-11T06:25:38.089Z,-17.13
2023-01-11T06:30:43.031Z,-17.16
2023-01-11T06:35:47.096Z,-16.88
2023-01-11T06:41:00.900Z,-16.98
2023-01-11T06:46:06.018Z,-16.81
2023-01-11T06:51:13.432Z,-16.70
2023-01-11T06:56:21.530Z,-15.93
2023-01-11T07:01:26.662Z,-15.72
2023-01-11T07:06:32.583Z,-15.33
2023-01-11T07:11:40.573Z,-14.88
2023-01-11T07:16:44.767Z,-15.04
2023-01-11T07:21:48.486Z,-15.13
2023-01-11T07:26:53.847Z,-14.99
2023-01-11T07:31:57.850Z,-15.53
2023-01-11T07:37:01.882Z,-14.87
2023-01-11T07:42:24.492Z,-15.37
2023-01-11T07:47:28.639Z,-15.39
2023-01-11T07:52:32.627Z,-15.81
2023-01-11T07:57:36.693Z,-15.18
2023-01-11T08:02:40.818Z,-15.09
2023-01-11T08:07:44.614Z,-14.67
2023-01-11T08:13:08.740Z,-14.93
2023-01-11T08:18:13.873Z,-15.78
2023-01-11T08:23:19.068Z,-15.63
2023-01-11T08:28:24.006Z,-15.86
2023-01-11T08:33:27.767Z,-15.55
2023-01-11T08:38:31.717Z,-15.53
2023-01-11T08:43:35.765Z,-15.82
2023-01-11T08:48:39.794Z,-15.23
2023-01-11T08:53:43.580Z,-15.05
2023-01-11T08:58:47.529Z,-15.22
2023-01-11T09:03:51.714Z,-14.86
2023-01-11T09:08:55.506Z,-14.85
2023-01-11T09:13:59.778Z,-14.99
2023-01-11T09:19:03.850Z,-15.60
2023-01-11T09:24:07.747Z,-14.82
2023-01-11T09:29:12.322Z,-14.62
2023-01-11T09:34:16.619Z,-14.56
2023-01-11T09:39:24.946Z,-15.08
2023-01-11T09:44:31.394Z,-15.18
2023-01-11T09:49:43.577Z,-14.89
2023-01-11T09:54:50.478Z,-15.09
2023-01-11T10:00:27.915Z,-15.11
2023-01-11T10:05:40.642Z,-15.06
2023-01-11T10:18:25.531Z,-14.95
2023-01-11T10:22:12.650Z,-14.93
2023-01-11T10:27:41.088Z,-14.84
2023-01-11T10:33:05.882Z,-14.74
2023-01-11T10:38:58.328Z,-14.90
2023-01-11T10:44:19.683Z,-14.75
2023-01-11T10:49:32.186Z,-14.59
2023-01-11T10:54:39.562Z,-14.66
2023-01-11T11:00:14.272Z,-14.63
2023-01-11T11:05:25.536Z,-14.45
2023-01-11T11:10:47.406Z,-14.46
2023-01-11T11:16:04.482Z,-14.47
2023-01-11T11:21:23.866Z,-14.49
2023-01-11T11:26:37.814Z,-14.39
2023-01-11T11:31:48.121Z,-14.63
2023-01-11T11:36:52.952Z,-14.51
2023-01-11T11:42:15.795Z,-14.49
2023-01-11T11:47:19.693Z,-14.36
2023-01-11T11:52:24.177Z,-14.49
2023-01-11T11:57:39.563Z,-14.55
2023-01-11T12:02:51.110Z,-14.40
2023-01-11T12:07:56.359Z,-14.37
2023-01-11T12:13:02.932Z,-14.22
2023-01-11T12:18:28.976Z,-14.13
2023-01-11T12:23:33.088Z,-14.40
2023-01-11T12:28:36.765Z,-14.35
2023-01-11T12:34:13.210Z,-14.42
2023-01-11T12:39:46.332Z,-14.29
2023-01-11T12:44:59.154Z,-14.12
2023-01-11T12:50:26.136Z,-14.04
2023-01-11T12:56:01.043Z,-14.08
2023-01-11T13:01:19.183Z,-14.21
2023-01-11T13:06:34.712Z,-14.19
2023-01-11T13:11:47.066Z,-14.14
2023-01-11T13:17:25.695Z,-14.03
2023-01-11T13:22:36.350Z,-13.90
2023-01-11T13:27:42.788Z,-13.95
2023-01-11T13:33:14.518Z,-13.87
2023-01-11T13:38:34.708Z,-13.67
2023-01-11T13:43:48.454Z,-13.71
2023-01-11T13:49:12.797Z,-13.85
2023-01-11T13:54:19.384Z,-13.68
2023-01-11T13:59:37.139Z,-13.43
2023-01-11T14:05:01.774Z,-13.71
2023-01-11T14:10:14.945Z,-13.79
2023-01-11T14:15:41.162Z,-13.77
2023-01-11T14:21:19.631Z,-13.87
2023-01-11T14:26:25.019Z,-13.94
2023-01-11T14:32:03.497Z,-13.93
2023-01-11T14:37:51.388Z,-13.50
2023-01-11T14:43:42.994Z,-14.08
2023-01-11T14:49:24.775Z,-13.99
2023-01-11T14:54:37.801Z,-13.63
2023-01-11T14:59:43.216Z,-13.91
2023-01-11T15:04:55.884Z,-14.68
2023-01-11T15:10:05.072Z,-14.65
2023-01-11T15:15:23.597Z,-14.31
2023-01-11T15:20:30.129Z,-14.14
2023-01-11T15:25:36.439Z,-14.33
2023-01-11T15:30:53.885Z,-14.52
2023-01-11T15:36:23.937Z,-14.53
2023-01-11T15:42:06.691Z,-14.70
2023-01-11T15:47:52.931Z,-14.67
2023-01-11T15:53:29.923Z,-14.53
2023-01-11T15:59:12.552Z,-14.52
2023-01-11T16:04:36.859Z,-14.44
2023-01-11T16:10:19.780Z,-14.51
2023-01-11T16:15:50.222Z,-14.23
2023-01-11T16:21:32.877Z,-14.68
2023-01-11T16:26:40.827Z,-14.49
2023-01-11T16:31:58.035Z,-14.32
2023-01-11T16:37:30.385Z,-14.24
2023-01-11T16:42:46.288Z,-14.33
2023-01-11T16:48:17.037Z,-14.23
2023-01-11T16:53:22.726Z,-14.47
2023-01-11T16:59:31.370Z,-14.24
2023-01-11T17:04:38.995Z,-14.23
2023-01-11T17:09:44.435Z,-14.25
2023-01-11T17:15:09.999Z,-14.22
2023-01-11T17:20:22.697Z,-14.27
2023-01-11T17:25:41.123Z,-14.54
2023-01-11T17:30:54.925Z,-14.60
2023-01-11T17:36:02.386Z,-14.75
2023-01-11T17:41:35.644Z,-14.75
2023-01-11T17:46:41.362Z,-14.73
2023-01-11T17:51:46.965Z,-14.79
2023-01-11T17:57:01.032Z,-14.86
2023-01-11T18:02:17.367Z,-15.01
2023-01-11T18:07:22.905Z,-15.11
2023-01-11T18:12:32.791Z,-14.79
2023-01-11T18:17:40.434Z,-14.78
2023-01-11T18:22:55.035Z,-14.84
2023-01-11T18:28:19.348Z,-14.87
2023-01-11T18:33:30.333Z,-15.01
2023-01-11T18:38:37.057Z,-15.00
2023-01-11T18:43:42.619Z,-15.26
2023-01-11T18:48:48.320Z,-15.34
2023-01-11T18:53:53.754Z,-15.15
2023-01-11T18:58:59.129Z,-15.45
2023-01-11T19:04:05.760Z,-15.56
2023-01-11T19:09:11.444Z,-15.82
2023-01-11T19:14:16.855Z,-15.72
2023-01-11T19:19:22.434Z,-16.12
2023-01-11T19:24:27.864Z,-16.06
2023-01-11T19:29:33.250Z,-15.52
2023-01-11T19:34:40.338Z,-15.41
2023-01-11T19:39:46.637Z,-16.28
2023-01-11T19:44:52.681Z,-16.32
2023-01-11T19:50:00.220Z,-16.04
2023-01-11T19:55:06.095Z,-15.94
2023-01-11T20:00:14.262Z,-15.97
2023-01-11T20:05:19.992Z,-16.39
2023-01-11T20:10:25.878Z,-16.20
2023-01-11T20:15:31.371Z,-16.04
2023-01-11T20:20:37.260Z,-16.48
2023-01-11T20:25:42.669Z,-16.86
2023-01-11T20:30:48.379Z,-17.07
2023-01-11T20:35:53.438Z,-16.93
2023-01-11T20:40:58.848Z,-17.31
2023-01-11T20:46:05.195Z,-17.52
2023-01-11T20:51:10.215Z,-17.40
2023-01-11T20:56:15.959Z,-17.07
2023-01-11T21:01:31.070Z,-17.52
2023-01-11T21:06:39.297Z,-17.72
2023-01-11T21:11:45.467Z,-17.88
2023-01-11T21:16:51.337Z,-17.68
2023-01-11T21:21:57.173Z,-17.03
2023-01-11T21:27:03.114Z,-16.88
2023-01-11T21:32:08.692Z,-17.44
2023-01-11T21:37:14.060Z,-17.30
2023-01-11T21:42:19.714Z,-17.36
2023-01-11T21:47:25.388Z,-17.41
2023-01-11T21:52:31.155Z,-17.64
2023-01-11T21:57:36.904Z,-17.05
2023-01-11T22:02:42.840Z,-16.73
2023-01-11T22:07:48.359Z,-16.79
2023-01-11T22:12:53.841Z,-17.66
2023-01-11T22:17:59.360Z,-18.07
2023-01-11T22:23:04.755Z,-18.13
2023-01-11T22:28:10.288Z,-17.91
2023-01-11T22:33:15.771Z,-17.35
2023-01-11T22:38:21.420Z,-17.71
2023-01-11T22:43:27.123Z,-17.33
2023-01-11T22:48:32.520Z,-17.86
2023-01-11T22:54:03.118Z,-18.12
2023-01-11T22:59:09.088Z,-18.07
2023-01-11T23:04:15.125Z,-18.05
2023-01-11T23:09:20.591Z,-18.04
2023-01-11T23:14:30.187Z,-18.10
2023-01-11T23:19:38.124Z,-17.52
2023-01-11T23:24:43.800Z,-17.18
2023-01-11T23:29:49.337Z,-17.18
2023-01-11T23:34:55.429Z,-18.01
2023-01-11T23:40:01.025Z,-17.84
2023-01-11T23:45:07.874Z,-17.52
2023-01-11T23:50:13.667Z,-17.27
2023-01-11T23:55:18.800Z,-16.83
